Pacific Grove, CA

9:48 AM PDT on August 28, 2016 (GMT -0700)
Lover's Point | | Change Station

Elev 95 ft 36.62 °N, 121.92 °W | Updated 24 seconds ago

Overcast
Overcast
61.4 °F
Feels Like 61.4 °F
N
0.0
Wind Variable Wind from NW
Gusts 3.0 mph

Today
High -- | Low -- °F
--% Chance of Precip.
Yesterday
High -- | Low -- °F
Precip. -- in
Pressure 30.10 in
Visibility 10.0 miles
Clouds Overcast 1500 ft
Dew Point 56 °F
Humidity 81%
Rainfall 0.00 in
Snow Depth Not available.
6:36 AM 7:40 PM
Waning Crescent, 14% visible
SPECI KMRY 281610Z 00000KT 10SM OVC015 16/12 A3010 RMK AO2 T01560117
Pressure 30.10 in
Visibility 10.0 miles
Clouds Overcast 1500 ft
Dew Point 56 °F
Humidity 81%
Rainfall 0.00 in
Snow Depth Not available.
6:36 AM 7:40 PM
Waning Crescent, 14% visible
SPECI KMRY 281610Z 00000KT 10SM OVC015 16/12 A3010 RMK AO2 T01560117

10-Day Weather Forecast

Almanac

Astronomy

Aug. 28, 2016 Rise Set
Actual Time
Civil Twilight
Nautical Twilight
Astronomical Twilight
Moon
Length of Visible Light
Length of Day
Tomorrow will be .
, % of the Moon is Illuminated

Today's Extremes

State Highs State Lows

Community

WunderPhotos

Upload Photos

1,935,627 photos uploaded!

WunderBlog® & News

Nearby

Air Quality

  Air Quality AQ Index Pollutant
Not available.

Snow Depth

Station Depth Elevation

Earthquake Activity

City Distance Mag. Time & Date
Minimum magnitude displayed is 2.5.

Coastal Water Temperatures

Place Temperature

Stations

Nearby Weather Stations

Station Location Temp. Windchill Dew Point Humidity Wind Precip. Elev Updated Type
                   

Watches & Warnings

There are currently no watches in effect.